sensor_id;sensor_type;location;lat;lon;timestamp;temperature;humidity
9265;DHT22;4669;49.594;10.958;2023-04-08T04:29:17;6.90;96.50
9265;DHT22;4669;49.594;10.958;2023-04-08T04:34:19;6.90;96.50
9265;DHT22;4669;49.594;10.958;2023-04-08T04:39:21;6.90;96.60
9265;DHT22;4669;49.594;10.958;2023-04-08T04:44:25;6.90;96.70
9265;DHT22;4669;49.594;10.958;2023-04-08T04:49:27;6.90;96.80
9265;DHT22;4669;49.594;10.958;2023-04-08T04:54:29;6.90;96.80
9265;DHT22;4669;49.594;10.958;2023-04-08T04:59:32;6.90;96.80
9265;DHT22;4669;49.594;10.958;2023-04-08T05:04:34;7.00;97.10
9265;DHT22;4669;49.594;10.958;2023-04-08T05:09:36;7.10;97.10
9265;DHT22;4669;49.594;10.958;2023-04-08T05:14:40;7.20;97.50
9265;DHT22;4669;49.594;10.958;2023-04-08T05:19:42;7.40;97.40
9265;DHT22;4669;49.594;10.958;2023-04-08T05:24:44;7.40;97.00
9265;DHT22;4669;49.594;10.958;2023-04-08T05:29:47;7.40;97.10
9265;DHT22;4669;49.594;10.958;2023-04-08T05:34:49;7.40;97.00
9265;DHT22;4669;49.594;10.958;2023-04-08T05:39:51;7.40;96.90
9265;DHT22;4669;49.594;10.958;2023-04-08T05:44:55;7.30;96.90
9265;DHT22;4669;49.594;10.958;2023-04-08T05:49:57;7.40;96.60
9265;DHT22;4669;49.594;10.958;2023-04-08T05:54:59;7.40;96.70
9265;DHT22;4669;49.594;10.958;2023-04-08T06:00:03;7.50;96.70
9265;DHT22;4669;49.594;10.958;2023-04-08T06:05:07;7.50;96.80
9265;DHT22;4669;49.594;10.958;2023-04-08T06:10:10;7.60;97.10
9265;DHT22;4669;49.594;10.958;2023-04-08T06:15:13;7.60;98.10
9265;DHT22;4669;49.594;10.958;2023-04-08T06:20:16;7.60;98.70
9265;DHT22;4669;49.594;10.958;2023-04-08T06:25:18;7.60;98.90
9265;DHT22;4669;49.594;10.958;2023-04-08T06:30:21;7.60;99.30
9265;DHT22;4669;49.594;10.958;2023-04-08T06:35:24;7.70;99.70
9265;DHT22;4669;49.594;10.958;2023-04-08T06:40:27;7.60;99.90
9265;DHT22;4669;49.594;10.958;2023-04-08T06:45:30;7.50;99.90
9265;DHT22;4669;49.594;10.958;2023-04-08T06:50:32;7.40;99.90
9265;DHT22;4669;49.594;10.958;2023-04-08T06:55:34;7.30;99.90
9265;DHT22;4669;49.594;10.958;2023-04-08T07:00:37;7.20;99.90
9265;DHT22;4669;49.594;10.958;2023-04-08T07:05:39;7.20;99.90
9265;DHT22;4669;49.594;10.958;2023-04-08T07:10:42;7.10;99.90
9265;DHT22;4669;49.594;10.958;2023-04-08T07:15:45;6.90;99.90
9265;DHT22;4669;49.594;10.958;2023-04-08T07:20:50;6.90;99.90
9265;DHT22;4669;49.594;10.958;2023-04-08T07:25:52;6.90;99.90
9265;DHT22;4669;49.594;10.958;2023-04-08T07:30:56;7.10;99.90
9265;DHT22;4669;49.594;10.958;2023-04-08T07:35:58;7.20;99.90
9265;DHT22;4669;49.594;10.958;2023-04-08T07:41:00;7.20;99.90
9265;DHT22;4669;49.594;10.958;2023-04-08T07:46:04;7.30;99.90
9265;DHT22;4669;49.594;10.958;2023-04-08T07:51:07;7.30;99.90
9265;DHT22;4669;49.594;10.958;2023-04-08T07:56:10;7.40;99.90
9265;DHT22;4669;49.594;10.958;2023-04-08T08:01:20;7.40;99.90
9265;DHT22;4669;49.594;10.958;2023-04-08T08:06:23;7.40;99.90
9265;DHT22;4669;49.594;10.958;2023-04-08T08:11:25;7.40;99.90
9265;DHT22;4669;49.594;10.958;2023-04-08T08:16:30;7.30;99.90
9265;DHT22;4669;49.594;10.958;2023-04-08T08:21:35;7.30;99.90
9265;DHT22;4669;49.594;10.958;2023-04-08T08:26:37;7.20;99.90
9265;DHT22;4669;49.594;10.958;2023-04-08T08:31:41;7.20;99.90
9265;DHT22;4669;49.594;10.958;2023-04-08T08:36:43;7.20;99.90
9265;DHT22;4669;49.594;10.958;2023-04-08T08:41:45;7.20;99.90
9265;DHT22;4669;49.594;10.958;2023-04-08T08:46:49;7.10;99.90
9265;DHT22;4669;49.594;10.958;2023-04-08T08:51:52;7.30;99.90
9265;DHT22;4669;49.594;10.958;2023-04-08T08:56:55;7.30;99.90
9265;DHT22;4669;49.594;10.958;2023-04-08T09:01:58;7.30;99.90
9265;DHT22;4669;49.594;10.958;2023-04-08T09:07:08;7.30;99.90
9265;DHT22;4669;49.594;10.958;2023-04-08T09:12:10;7.30;99.90
9265;DHT22;4669;49.594;10.958;2023-04-08T09:17:15;7.30;99.90
9265;DHT22;4669;49.594;10.958;2023-04-08T09:22:17;7.40;99.90
9265;DHT22;4669;49.594;10.958;2023-04-08T09:27:32;7.40;99.90
9265;DHT22;4669;49.594;10.958;2023-04-08T09:32:47;7.40;99.90
9265;DHT22;4669;49.594;10.958;2023-04-08T09:37:50;7.40;99.90
9265;DHT22;4669;49.594;10.958;2023-04-08T09:42:53;7.40;99.90
9265;DHT22;4669;49.594;10.958;2023-04-08T09:48:06;7.40;99.90
9265;DHT22;4669;49.594;10.958;2023-04-08T09:53:13;7.40;99.90
9265;DHT22;4669;49.594;10.958;2023-04-08T09:58:21;7.50;99.90
9265;DHT22;4669;49.594;10.958;2023-04-08T10:03:29;7.50;99.90
9265;DHT22;4669;49.594;10.958;2023-04-08T10:08:34;7.60;99.90
9265;DHT22;4669;49.594;10.958;2023-04-08T10:13:36;7.80;99.90
9265;DHT22;4669;49.594;10.958;2023-04-08T10:18:40;7.90;99.90
9265;DHT22;4669;49.594;10.958;2023-04-08T10:23:55;8.00;99.90
9265;DHT22;4669;49.594;10.958;2023-04-08T10:29:29;8.00;99.90
9265;DHT22;4669;49.594;10.958;2023-04-08T10:34:32;8.00;99.90
9265;DHT22;4669;49.594;10.958;2023-04-08T10:39:35;8.00;99.90
9265;DHT22;4669;49.594;10.958;2023-04-08T10:44:37;8.00;99.90
9265;DHT22;4669;49.594;10.958;2023-04-08T10:49:47;8.10;99.90
9265;DHT22;4669;49.594;10.958;2023-04-08T10:54:49;8.40;99.90
9265;DHT22;4669;49.594;10.958;2023-04-08T10:59:51;8.80;99.90
9265;DHT22;4669;49.594;10.958;2023-04-08T11:04:54;9.00;99.90
9265;DHT22;4669;49.594;10.958;2023-04-08T11:09:57;9.10;99.90
9265;DHT22;4669;49.594;10.958;2023-04-08T11:15:04;9.00;99.90
9265;DHT22;4669;49.594;10.958;2023-04-08T11:20:09;8.80;99.90
9265;DHT22;4669;49.594;10.958;2023-04-08T11:25:11;8.80;99.90
9265;DHT22;4669;49.594;10.958;2023-04-08T11:30:13;9.00;99.90
9265;DHT22;4669;49.594;10.958;2023-04-08T11:35:17;9.10;99.90
9265;DHT22;4669;49.594;10.958;2023-04-08T11:40:19;9.10;99.90
9265;DHT22;4669;49.594;10.958;2023-04-08T11:45:23;9.10;99.90
9265;DHT22;4669;49.594;10.958;2023-04-08T11:50:27;9.10;99.90
9265;DHT22;4669;49.594;10.958;2023-04-08T11:55:30;9.10;99.90
9265;DHT22;4669;49.594;10.958;2023-04-08T12:00:33;9.00;99.90
9265;DHT22;4669;49.594;10.958;2023-04-08T12:05:36;9.10;99.90
9265;DHT22;4669;49.594;10.958;2023-04-08T12:10:38;9.40;99.90
9265;DHT22;4669;49.594;10.958;2023-04-08T12:15:40;9.70;99.90
9265;DHT22;4669;49.594;10.958;2023-04-08T12:20:44;9.70;99.90
9265;DHT22;4669;49.594;10.958;2023-04-08T12:25:46;9.60;99.90
9265;DHT22;4669;49.594;10.958;2023-04-08T12:30:48;9.40;99.90
9265;DHT22;4669;49.594;10.958;2023-04-08T12:35:51;9.20;99.90
9265;DHT22;4669;49.594;10.958;2023-04-08T12:40:54;9.10;99.90
9265;DHT22;4669;49.594;10.958;2023-04-08T12:45:56;9.10;99.90
9265;DHT22;4669;49.594;10.958;2023-04-08T12:51:00;9.00;99.90
9265;DHT22;4669;49.594;10.958;2023-04-08T12:56:03;9.00;99.90
9265;DHT22;4669;49.594;10.958;2023-04-08T13:01:05;9.10;99.90
9265;DHT22;4669;49.594;10.958;2023-04-08T13:06:08;9.20;99.90
9265;DHT22;4669;49.594;10.958;2023-04-08T13:11:11;9.60;99.90
9265;DHT22;4669;49.594;10.958;2023-04-08T13:16:14;9.90;99.90
9265;DHT22;4669;49.594;10.958;2023-04-08T13:21:17;10.10;99.90
9265;DHT22;4669;49.594;10.958;2023-04-08T13:26:19;10.40;99.90
9265;DHT22;4669;49.594;10.958;2023-04-08T13:31:21;10.50;99.90
9265;DHT22;4669;49.594;10.958;2023-04-08T13:36:25;10.50;99.90
9265;DHT22;4669;49.594;10.958;2023-04-08T13:41:28;10.60;99.60
9265;DHT22;4669;49.594;10.958;2023-04-08T13:46:30;10.80;99.80
9265;DHT22;4669;49.594;10.958;2023-04-08T13:51:33;11.10;99.00
9265;DHT22;4669;49.594;10.958;2023-04-08T13:56:35;11.30;98.10
9265;DHT22;4669;49.594;10.958;2023-04-08T14:01:37;11.40;98.50
9265;DHT22;4669;49.594;10.958;2023-04-08T14:06:41;11.40;98.50
9265;DHT22;4669;49.594;10.958;2023-04-08T14:11:43;11.30;97.20
9265;DHT22;4669;49.594;10.958;2023-04-08T14:16:46;11.10;97.90
9265;DHT22;4669;49.594;10.958;2023-04-08T14:21:50;11.00;98.60
9265;DHT22;4669;49.594;10.958;2023-04-08T14:26:52;11.20;97.10
9265;DHT22;4669;49.594;10.958;2023-04-08T14:31:55;11.40;96.70
9265;DHT22;4669;49.594;10.958;2023-04-08T14:36:59;11.50;96.80
9265;DHT22;4669;49.594;10.958;2023-04-08T14:42:01;11.70;96.10
9265;DHT22;4669;49.594;10.958;2023-04-08T14:47:03;11.50;96.10
9265;DHT22;4669;49.594;10.958;2023-04-08T14:52:06;11.30;96.60
9265;DHT22;4669;49.594;10.958;2023-04-08T14:57:08;11.20;96.90
9265;DHT22;4669;49.594;10.958;2023-04-08T15:02:10;10.90;97.40
9265;DHT22;4669;49.594;10.958;2023-04-08T15:07:13;10.90;97.40
9265;DHT22;4669;49.594;10.958;2023-04-08T15:12:15;10.90;97.90
9265;DHT22;4669;49.594;10.958;2023-04-08T15:17:17;10.90;98.10
9265;DHT22;4669;49.594;10.958;2023-04-08T15:22:21;10.90;98.60
9265;DHT22;4669;49.594;10.958;2023-04-08T15:27:23;11.00;98.00
9265;DHT22;4669;49.594;10.958;2023-04-08T15:32:25;11.00;98.30
9265;DHT22;4669;49.594;10.958;2023-04-08T15:37:29;10.80;98.70
9265;DHT22;4669;49.594;10.958;2023-04-08T15:42:31;10.90;98.20
9265;DHT22;4669;49.594;10.958;2023-04-08T15:47:33;10.80;98.10
9265;DHT22;4669;49.594;10.958;2023-04-08T15:52:37;10.70;98.50
9265;DHT22;4669;49.594;10.958;2023-04-08T15:57:39;10.70;98.00
9265;DHT22;4669;49.594;10.958;2023-04-08T16:02:41;10.50;98.40
9265;DHT22;4669;49.594;10.958;2023-04-08T16:07:45;10.50;98.10
9265;DHT22;4669;49.594;10.958;2023-04-08T16:12:47;10.60;97.90
9265;DHT22;4669;49.594;10.958;2023-04-08T16:17:49;10.50;98.00
9265;DHT22;4669;49.594;10.958;2023-04-08T16:22:53;10.40;98.00
9265;DHT22;4669;49.594;10.958;2023-04-08T16:27:55;10.30;98.40
9265;DHT22;4669;49.594;10.958;2023-04-08T16:32:57;10.20;98.70
9265;DHT22;4669;49.594;10.958;2023-04-08T16:38:01;10.10;98.80
9265;DHT22;4669;49.594;10.958;2023-04-08T16:43:03;10.10;98.90
9265;DHT22;4669;49.594;10.958;2023-04-08T16:48:06;10.00;98.90
9265;DHT22;4669;49.594;10.958;2023-04-08T16:53:10;10.00;99.30
9265;DHT22;4669;49.594;10.958;2023-04-08T16:58:12;10.00;99.60
9265;DHT22;4669;49.594;10.958;2023-04-08T17:03:14;10.10;99.90
9265;DHT22;4669;49.594;10.958;2023-04-08T17:08:18;10.00;99.90
9265;DHT22;4669;49.594;10.958;2023-04-08T17:13:20;9.90;99.90
9265;DHT22;4669;49.594;10.958;2023-04-08T17:18:23;9.80;99.90
9265;DHT22;4669;49.594;10.958;2023-04-08T17:23:26;9.70;99.90
9265;DHT22;4669;49.594;10.958;2023-04-08T17:28:28;9.70;99.90
9265;DHT22;4669;49.594;10.958;2023-04-08T17:33:30;9.70;99.90
9265;DHT22;4669;49.594;10.958;2023-04-08T17:38:35;9.70;99.90
9265;DHT22;4669;49.594;10.958;2023-04-08T17:43:39;9.70;99.90
9265;DHT22;4669;49.594;10.958;2023-04-08T17:48:42;9.60;99.90
9265;DHT22;4669;49.594;10.958;2023-04-08T17:53:45;9.60;99.90
9265;DHT22;4669;49.594;10.958;2023-04-08T17:58:47;9.60;99.90
9265;DHT22;4669;49.594;10.958;2023-04-08T18:03:49;9.60;99.90
9265;DHT22;4669;49.594;10.958;2023-04-08T18:08:53;9.50;99.90
9265;DHT22;4669;49.594;10.958;2023-04-08T18:13:55;9.50;99.90
9265;DHT22;4669;49.594;10.958;2023-04-08T18:18:57;9.50;99.90
9265;DHT22;4669;49.594;10.958;2023-04-08T18:24:00;9.50;99.90
9265;DHT22;4669;49.594;10.958;2023-04-08T18:29:02;9.50;99.90
9265;DHT22;4669;49.594;10.958;2023-04-08T18:34:04;9.50;99.90
9265;DHT22;4669;49.594;10.958;2023-04-08T18:39:07;9.50;99.90
9265;DHT22;4669;49.594;10.958;2023-04-08T18:44:10;9.50;99.90
9265;DHT22;4669;49.594;10.958;2023-04-08T18:49:12;9.40;99.90
9265;DHT22;4669;49.594;10.958;2023-04-08T18:54:15;9.40;99.90
9265;DHT22;4669;49.594;10.958;2023-04-08T18:59:18;9.40;99.90
9265;DHT22;4669;49.594;10.958;2023-04-08T19:04:20;9.40;99.90
9265;DHT22;4669;49.594;10.958;2023-04-08T19:09:23;9.30;99.90
9265;DHT22;4669;49.594;10.958;2023-04-08T19:14:26;9.30;99.90
9265;DHT22;4669;49.594;10.958;2023-04-08T19:19:28;9.20;99.90
9265;DHT22;4669;49.594;10.958;2023-04-08T19:24:31;9.30;99.90
9265;DHT22;4669;49.594;10.958;2023-04-08T19:29:33;9.30;99.90
9265;DHT22;4669;49.594;10.958;2023-04-08T19:34:36;9.20;99.90
9265;DHT22;4669;49.594;10.958;2023-04-08T19:39:40;9.20;99.90
9265;DHT22;4669;49.594;10.958;2023-04-08T19:44:42;9.20;99.90
9265;DHT22;4669;49.594;10.958;2023-04-08T19:49:44;9.20;99.90
9265;DHT22;4669;49.594;10.958;2023-04-08T19:54:49;9.20;99.90
9265;DHT22;4669;49.594;10.958;2023-04-08T19:59:52;9.10;99.90
9265;DHT22;4669;49.594;10.958;2023-04-08T20:04:54;9.10;99.90
9265;DHT22;4669;49.594;10.958;2023-04-08T20:09:58;9.10;99.90
9265;DHT22;4669;49.594;10.958;2023-04-08T20:15:00;9.10;99.90
9265;DHT22;4669;49.594;10.958;2023-04-08T20:20:03;9.10;99.90
9265;DHT22;4669;49.594;10.958;2023-04-08T20:25:07;9.10;99.90
9265;DHT22;4669;49.594;10.958;2023-04-08T20:30:10;9.10;99.90
9265;DHT22;4669;49.594;10.958;2023-04-08T20:35:12;9.10;99.90
9265;DHT22;4669;49.594;10.958;2023-04-08T20:40:17;9.10;99.90
9265;DHT22;4669;49.594;10.958;2023-04-08T20:45:19;9.10;99.90
9265;DHT22;4669;49.594;10.958;2023-04-08T20:50:21;9.00;99.90
9265;DHT22;4669;49.594;10.958;2023-04-08T20:55:24;9.00;99.90
9265;DHT22;4669;49.594;10.958;2023-04-08T21:00:27;9.00;99.90
9265;DHT22;4669;49.594;10.958;2023-04-08T21:05:29;9.10;99.90
9265;DHT22;4669;49.594;10.958;2023-04-08T21:10:32;9.00;99.90
9265;DHT22;4669;49.594;10.958;2023-04-08T21:15:34;9.00;99.90
9265;DHT22;4669;49.594;10.958;2023-04-08T21:20:38;9.00;99.90
9265;DHT22;4669;49.594;10.958;2023-04-08T21:25:42;8.90;99.90
9265;DHT22;4669;49.594;10.958;2023-04-08T21:30:44;8.90;99.90
9265;DHT22;4669;49.594;10.958;2023-04-08T21:35:46;8.90;99.90
9265;DHT22;4669;49.594;10.958;2023-04-08T21:40:49;8.90;99.90
9265;DHT22;4669;49.594;10.958;2023-04-08T21:45:52;8.90;99.90
9265;DHT22;4669;49.594;10.958;2023-04-08T21:50:54;8.90;99.90
9265;DHT22;4669;49.594;10.958;2023-04-08T21:55:57;8.90;99.90
